地図

経路データ

SID SEASON NUMBER BASIN SUBBASIN NAME ISO_TIME NATURE LAT LON WMO_WIND WMO_PRES WMO_AGENCY TRACK_TYPE DIST2LAND LANDFALL IFLAG USA_AGENCY USA_ATCF_ID USA_LAT USA_LON USA_RECORD USA_STATUS USA_WIND USA_PRES USA_SSHS USA_R34_NE USA_R34_SE USA_R34_SW USA_R34_NW USA_R50_NE USA_R50_SE USA_R50_SW USA_R50_NW USA_R64_NE USA_R64_SE USA_R64_SW USA_R64_NW USA_POCI USA_ROCI USA_RMW USA_EYE TOKYO_LAT TOKYO_LON TOKYO_GRADE TOKYO_WIND TOKYO_PRES TOKYO_R50_DIR TOKYO_R50_LONG TOKYO_R50_SHORT TOKYO_R30_DIR TOKYO_R30_LONG TOKYO_R30_SHORT TOKYO_LAND CMA_LAT CMA_LON CMA_CAT CMA_WIND CMA_PRES HKO_LAT HKO_LON HKO_CAT HKO_WIND HKO_PRES NEWDELHI_LAT NEWDELHI_LON NEWDELHI_GRADE NEWDELHI_WIND NEWDELHI_PRES NEWDELHI_CI NEWDELHI_DP NEWDELHI_POCI REUNION_LAT REUNION_LON REUNION_TYPE REUNION_WIND REUNION_PRES REUNION_TNUM REUNION_CI REUNION_RMW REUNION_R34_NE REUNION_R34_SE REUNION_R34_SW REUNION_R34_NW REUNION_R50_NE REUNION_R50_SE REUNION_R50_SW REUNION_R50_NW REUNION_R64_NE REUNION_R64_SE REUNION_R64_SW REUNION_R64_NW BOM_LAT BOM_LON BOM_TYPE BOM_WIND BOM_PRES BOM_TNUM BOM_CI BOM_RMW BOM_R34_NE BOM_R34_SE BOM_R34_SW BOM_R34_NW BOM_R50_NE BOM_R50_SE BOM_R50_SW BOM_R50_NW BOM_R64_NE BOM_R64_SE BOM_R64_SW BOM_R64_NW BOM_ROCI BOM_POCI BOM_EYE BOM_POS_METHOD BOM_PRES_METHOD NADI_LAT NADI_LON NADI_CAT NADI_WIND NADI_PRES WELLINGTON_LAT WELLINGTON_LON WELLINGTON_WIND WELLINGTON_PRES DS824_LAT DS824_LON DS824_STAGE DS824_WIND DS824_PRES TD9636_LAT TD9636_LON TD9636_STAGE TD9636_WIND TD9636_PRES TD9635_LAT TD9635_LON TD9635_WIND TD9635_PRES TD9635_ROCI NEUMANN_LAT NEUMANN_LON NEUMANN_CLASS NEUMANN_WIND NEUMANN_PRES MLC_LAT MLC_LON MLC_CLASS MLC_WIND MLC_PRES USA_GUST BOM_GUST BOM_GUST_PER REUNION_GUST REUNION_GUST_PER USA_SEAHGT USA_SEARAD_NE USA_SEARAD_SE USA_SEARAD_SW USA_SEARAD_NW STORM_SPEED STORM_DIR
1934193N31281 1934 33 NA NA NOT_NAMED 1934-07-12 00:00:00 TS 30.7000 -79.4000 25 hurdat_atl main 190 190 O_____________ hurdat_atl AL021934 30.7000 -79.4000 TD 25 -1 3 73
1934193N31281 1934 33 NA NA NOT_NAMED 1934-07-12 03:00:00 TS 30.7426 -79.2401 main 209 202 P_____________ AL021934 30.7426 -79.2401 TD 25 -1 3 69
1934193N31281 1934 33 NA NA NOT_NAMED 1934-07-12 06:00:00 TS 30.8000 -79.1000 25 hurdat_atl main 210 210 O_____________ hurdat_atl AL021934 30.8000 -79.1000 TD 25 -1 3 58
1934193N31281 1934 33 NA NA NOT_NAMED 1934-07-12 09:00:00 TS 30.8848 -78.9798 main 211 206 P_____________ AL021934 30.8848 -78.9798 TD 25 -1 3 52
1934193N31281 1934 33 NA NA NOT_NAMED 1934-07-12 12:00:00 TS 31.0000 -78.8000 25 hurdat_atl main 211 207 O_____________ hurdat_atl AL021934 31.0000 -78.8000 TD 25 -1 5 58
1934193N31281 1934 33 NA NA NOT_NAMED 1934-07-12 15:00:00 TS 31.1424 -78.5025 main 219 210 P_____________ AL021934 31.1424 -78.5025 TD 27 -1 7 63
1934193N31281 1934 33 NA NA NOT_NAMED 1934-07-12 18:00:00 TS 31.3000 -78.1000 30 hurdat_atl main 225 221 O_____________ hurdat_atl AL021934 31.3000 -78.1000 TD 30 -1 8 67
1934193N31281 1934 33 NA NA NOT_NAMED 1934-07-12 21:00:00 TS 31.4496 -77.6523 main 239 237 P_____________ AL021934 31.4496 -77.6523 TD 30 -1 9 71
1934193N31281 1934 33 NA NA NOT_NAMED 1934-07-13 00:00:00 TS 31.6000 -77.1000 30 hurdat_atl main 265 265 O_____________ hurdat_atl AL021934 31.6000 -77.1000 TD 30 -1 11 74
1934193N31281 1934 33 NA NA NOT_NAMED 1934-07-13 03:00:00 TS 31.7501 -76.4299 main 277 277 P_____________ AL021934 31.7501 -76.4299 TD 32 -1 12 76
1934193N31281 1934 33 NA NA NOT_NAMED 1934-07-13 06:00:00 TS 31.9000 -75.7000 35 hurdat_atl main 309 309 O_____________ hurdat_atl AL021934 31.9000 -75.7000 TS 35 0 13 76
1934193N31281 1934 33 NA NA NOT_NAMED 1934-07-13 09:00:00 TS 32.0571 -74.9999 main 321 321 P_____________ AL021934 32.0571 -74.9999 TS 37 0 12 76
1934193N31281 1934 33 NA NA NOT_NAMED 1934-07-13 12:00:00 TS 32.2000 -74.3000 40 hurdat_atl main 345 345 O_____________ hurdat_atl AL021934 32.2000 -74.3000 TS 40 0 12 78
1934193N31281 1934 33 NA NA NOT_NAMED 1934-07-13 15:00:00 TS 32.3070 -73.6071 main 378 378 P_____________ AL021934 32.3070 -73.6071 TS 42 0 12 80
1934193N31281 1934 33 NA NA NOT_NAMED 1934-07-13 18:00:00 TS 32.4000 -72.9000 45 hurdat_atl main 419 419 O_____________ hurdat_atl AL021934 32.4000 -72.9000 TS 45 0 12 81
1934193N31281 1934 33 NA NA NOT_NAMED 1934-07-13 21:00:00 TS 32.4922 -72.1572 main 463 463 P_____________ AL021934 32.4922 -72.1572 TS 47 0 13 81
1934193N31281 1934 33 NA NA NOT_NAMED 1934-07-14 00:00:00 TS 32.6000 -71.4000 50 hurdat_atl main 517 517 O_____________ hurdat_atl AL021934 32.6000 -71.4000 TS 50 0 13 80
1934193N31281 1934 33 NA NA NOT_NAMED 1934-07-14 03:00:00 TS 32.7194 -70.6568 main 559 559 P_____________ AL021934 32.7194 -70.6568 TS 55 0 13 77
1934193N31281 1934 33 NA NA NOT_NAMED 1934-07-14 06:00:00 TS 32.9000 -69.9000 60 hurdat_atl main 606 606 O_____________ hurdat_atl AL021934 32.9000 -69.9000 TS 60 0 14 72
1934193N31281 1934 33 NA NA NOT_NAMED 1934-07-14 09:00:00 TS 33.1472 -69.1068 main 658 652 P_____________ AL021934 33.1472 -69.1068 TS 62 0 15 66
1934193N31281 1934 33 NA NA NOT_NAMED 1934-07-14 12:00:00 TS 33.5000 -68.3000 65 hurdat_atl main 705 705 O_____________ hurdat_atl AL021934 33.5000 -68.3000 HU 65 1 16 59
1934193N31281 1934 33 NA NA NOT_NAMED 1934-07-14 15:00:00 TS 33.9394 -67.5063 main 758 754 P_____________ AL021934 33.9394 -67.5063 HU 67 1 17 53
1934193N31281 1934 33 NA NA NOT_NAMED 1934-07-14 18:00:00 TS 34.5000 -66.7000 70 hurdat_atl main 811 811 O_____________ hurdat_atl AL021934 34.5000 -66.7000 HU 70 1 18 48
1934193N31281 1934 33 NA NA NOT_NAMED 1934-07-14 21:00:00 TS 35.1621 -65.8568 main 806 776 P_____________ AL021934 35.1621 -65.8568 HU 72 1 20 45
1934193N31281 1934 33 NA NA NOT_NAMED 1934-07-15 00:00:00 TS 35.9000 -65.0000 75 hurdat_atl main 776 755 O_____________ hurdat_atl AL021934 35.9000 -65.0000 HU 75 1 20 43
1934193N31281 1934 33 NA NA NOT_NAMED 1934-07-15 03:00:00 TS 36.6343 -64.1556 main 755 699 P_____________ AL021934 36.6343 -64.1556 HU 77 1 20 42
1934193N31281 1934 33 NA NA NOT_NAMED 1934-07-15 06:00:00 TS 37.4000 -63.3000 80 hurdat_atl main 699 645 O_____________ hurdat_atl AL021934 37.4000 -63.3000 HU 80 1 21 42
1934193N31281 1934 33 NA NA NOT_NAMED 1934-07-15 09:00:00 TS 38.1767 -62.4199 main 637 587 P_____________ AL021934 38.1767 -62.4199 HU 80 1 21 41
1934193N31281 1934 33 NA NA NOT_NAMED 1934-07-15 12:00:00 TS 39.0000 -61.5000 80 hurdat_atl main 592 563 O_____________ hurdat_atl AL021934 39.0000 -61.5000 HU 80 1 22 41
1934193N31281 1934 33 NA NA NOT_NAMED 1934-07-15 15:00:00 TS 39.8690 -60.5343 main 560 513 P_____________ AL021934 39.8690 -60.5343 HU 80 1 24 40
1934193N31281 1934 33 NA NA NOT_NAMED 1934-07-15 18:00:00 TS 40.8000 -59.5000 80 hurdat_atl main 505 441 O_____________ hurdat_atl AL021934 40.8000 -59.5000 HU 80 1 25 40
1934193N31281 1934 33 NA NA NOT_NAMED 1934-07-15 21:00:00 TS 41.7764 -58.3915 main 435 405 P_____________ AL021934 41.7764 -58.3915 HU 77 1 26 41
1934193N31281 1934 33 NA NA NOT_NAMED 1934-07-16 00:00:00 TS 42.8000 -57.2000 75 hurdat_atl main 401 334 O_____________ hurdat_atl AL021934 42.8000 -57.2000 HU 75 1 27 41
1934193N31281 1934 33 NA NA NOT_NAMED 1934-07-16 03:00:00 TS 43.8418 -55.9195 main 333 217 P_____________ AL021934 43.8418 -55.9195 HU 70 1 28 42
1934193N31281 1934 33 NA NA NOT_NAMED 1934-07-16 06:00:00 ET 44.9000 -54.6000 65 hurdat_atl main 204 78 O_____________ hurdat_atl AL021934 44.9000 -54.6000 EX 65 -4 28 41
1934193N31281 1934 33 NA NA NOT_NAMED 1934-07-16 09:00:00 ET 45.9792 -53.2760 main 67 37 P_____________ AL021934 45.9792 -53.2760 EX 60 -4 28 41
1934193N31281 1934 33 NA NA NOT_NAMED 1934-07-16 12:00:00 ET 47.0000 -52.0000 55 hurdat_atl main 68 68 O_____________ hurdat_atl AL021934 47.0000 -52.0000 EX 55 -4 26 41
1934193N31281 1934 33 NA NA NOT_NAMED 1934-07-16 15:00:00 ET 47.9082 -50.8155 main 141 141 P_____________ AL021934 47.9082 -50.8155 EX 52 -4 23 42
1934193N31281 1934 33 NA NA NOT_NAMED 1934-07-16 18:00:00 ET 48.7000 -49.7000 50 hurdat_atl main 237 237 O_____________ hurdat_atl AL021934 48.7000 -49.7000 EX 50 -4 21 45
1934193N31281 1934 33 NA NA NOT_NAMED 1934-07-16 21:00:00 ET 49.3823 -48.6030 main 335 335 P_____________ AL021934 49.3823 -48.6030 EX 47 -4 19 48
1934193N31281 1934 33 NA NA NOT_NAMED 1934-07-17 00:00:00 ET 50.0000 -47.5000 45 hurdat_atl main 430 O_____________ hurdat_atl AL021934 50.0000 -47.5000 EX 45 -4 19 49

IBTrACS Databaseについて

本データベースは、米国NOAAが公開する1842年以降の世界の熱帯低気圧のベストトラックデータアーカイブInternational Best Track Archive for Climate Stewardship (IBTrACS)を、ウェブで閲覧しやすい形式に変換したものです。

最終更新日:2021-10-21